Lake City, South Carolina
Current Conditions -  °F | °C
As of 3:15 AM on Friday 28 Nov 2014 (Local Time) from KCKI Reporting Station
Clear Clear  
Wind Chill: 34°   Ceiling: Unl
Heat Index: 34°   Visibility: 10mi
Dew Point: 34°   Wind: 3mph
Humidity: 100%   Direction: 290°WNW
Pressure: 30.32"   Gusts: NA
Location:  33.87°N, 79.75°W
Report Text: KCKI 280815Z AUTO 29003KT 10SM CLR 01/01 A3032 RMK AO2
Loading
Personal Weather Stations






























Interactive Weather Map New forecast layout! Learn more

10-Day Weather Forecast

Advertisements
Track Severe Weather on mobile